LRTR/TSR METAR and TAF weather

Enter ICAO airport designator
Station Type Date Time Source
LRTR METAR 2019/06/26 20:30 UTC NOAA

LRTR 262030Z 31005KT CAVOK 24/23 Q1021 NOSIG


Station Type Date Time Source
LRTR Decoded METAR 2019/06/26 20:30 UTC NOAA

Timisoara, Romania (LRTR) 45-46N 021-15E 88M
Jun 26, 2019 - 04:30 PM EDT / 2019.06.26 2030 UTC
Wind: from the NW (310 degrees) at 6 MPH (5 KT):0
Visibility: greater than 7 mile(s):0
Temperature: 75 F (24 C)
Dew Point: 73 F (23 C)
Relative Humidity: 94%
Pressure (altimeter): 30.15 in. Hg (1021 hPa)
ob: LRTR 262030Z 31005KT CAVOK 24/23 Q1021 NOSIG
cycle: 20

Station Type Date Time Source
LRTR TAF 2019/06/26 18:35 UTC NOAA

TAF LRTR 261700Z 2618/2718 VRB04KT CAVOK
TEMPO 2701/2704 5000 BR
BECMG 2709/2711 26010KT
BECMG 2716/2718 SCT040CB

Example: see airport list